createdAt,value
2023-03-04T00:01:51.000Z,16.4
2023-03-04T00:05:19.000Z,15.7
2023-03-04T00:08:47.000Z,16.7
2023-03-04T00:12:15.000Z,16.6
2023-03-04T00:15:43.000Z,17.9
2023-03-04T00:19:11.000Z,18.4
2023-03-04T00:22:00.000Z,16
2023-03-04T00:25:28.000Z,16.2
2023-03-04T00:28:56.000Z,16.5
2023-03-04T00:32:24.000Z,20.3
2023-03-04T00:35:52.000Z,23.5
2023-03-04T00:39:20.000Z,22.1
2023-03-04T00:42:48.000Z,17.7
2023-03-04T00:46:16.000Z,25.2
2023-03-04T00:49:44.000Z,24
2023-03-04T00:53:12.000Z,17.8
2023-03-04T00:56:40.000Z,23
2023-03-04T00:59:29.000Z,22.9
2023-03-04T01:02:57.000Z,20.6
2023-03-04T01:06:25.000Z,19.9
2023-03-04T01:09:53.000Z,20.3
2023-03-04T01:13:21.000Z,21.3
2023-03-04T01:16:49.000Z,23.5
2023-03-04T01:20:17.000Z,22.3
2023-03-04T01:23:45.000Z,19.9
2023-03-04T01:27:13.000Z,22
2023-03-04T01:30:41.000Z,19.9
2023-03-04T01:34:09.000Z,21.6
2023-03-04T01:36:58.000Z,21.4
2023-03-04T01:40:26.000Z,22
2023-03-04T01:43:54.000Z,22.5
2023-03-04T01:47:21.000Z,21.2
2023-03-04T01:50:50.000Z,22.2
2023-03-04T01:54:18.000Z,20
2023-03-04T01:57:46.000Z,21
2023-03-04T02:01:14.000Z,20.6
2023-03-04T02:04:42.000Z,18.7
2023-03-04T02:08:10.000Z,22.2
2023-03-04T02:11:38.000Z,21.6
2023-03-04T02:14:27.000Z,23
2023-03-04T02:17:55.000Z,19
2023-03-04T02:21:23.000Z,23
2023-03-04T02:24:51.000Z,21.8
2023-03-04T02:28:19.000Z,20.6
2023-03-04T02:31:47.000Z,19.9
2023-03-04T02:35:15.000Z,22.8
2023-03-04T02:38:43.000Z,20.9
2023-03-04T02:42:11.000Z,22.6
2023-03-04T02:45:39.000Z,21.5
2023-03-04T02:49:07.000Z,20.8
2023-03-04T02:55:30.000Z,28.5
2023-03-04T02:58:57.000Z,21.1
2023-03-04T03:02:25.000Z,22.3
2023-03-04T03:05:54.000Z,19.3
2023-03-04T03:09:21.000Z,22.4
2023-03-04T03:12:49.000Z,23.4
2023-03-04T03:16:17.000Z,21.2
2023-03-04T03:19:45.000Z,20.4
2023-03-04T03:23:14.000Z,20.2
2023-03-04T03:26:42.000Z,19.8
2023-03-04T03:30:10.000Z,21.5
2023-03-04T03:32:59.000Z,20.9
2023-03-04T03:36:27.000Z,20.6
2023-03-04T03:39:55.000Z,19.9
2023-03-04T03:43:24.000Z,20.2
2023-03-04T03:46:52.000Z,19.6
2023-03-04T03:50:20.000Z,19
2023-03-04T03:53:48.000Z,19.6
2023-03-04T03:57:16.000Z,18.1
2023-03-04T04:00:44.000Z,21.1
2023-03-04T04:04:13.000Z,19.5
2023-03-04T04:07:41.000Z,20
2023-03-04T04:10:30.000Z,20.2
2023-03-04T04:13:59.000Z,18.9
2023-03-04T04:17:27.000Z,19.5
2023-03-04T04:20:55.000Z,19.4
2023-03-04T04:24:23.000Z,20.7
2023-03-04T04:27:51.000Z,18.3
2023-03-04T04:31:19.000Z,18.5
2023-03-04T04:34:50.000Z,17.7
2023-03-04T04:38:20.000Z,18.7
2023-03-04T04:41:48.000Z,20.1
2023-03-04T04:45:17.000Z,17.3
2023-03-04T04:48:06.000Z,18.6
2023-03-04T04:51:36.000Z,17.6
2023-03-04T04:55:07.000Z,18.3
2023-03-04T04:58:35.000Z,16.1
2023-03-04T05:02:03.000Z,17.3
2023-03-04T05:05:31.000Z,17.4
2023-03-04T05:08:59.000Z,19.4
2023-03-04T05:12:27.000Z,17.7
2023-03-04T05:15:59.000Z,19.4
2023-03-04T05:19:31.000Z,16.9
2023-03-04T05:23:00.000Z,19.4
2023-03-04T05:25:51.000Z,19.6
2023-03-04T05:29:24.000Z,17.9
2023-03-04T05:32:56.000Z,18.3
2023-03-04T05:36:29.000Z,18
2023-03-04T05:40:01.000Z,16.9
2023-03-04T05:43:34.000Z,17.2
2023-03-04T05:47:07.000Z,16.8
2023-03-04T05:50:40.000Z,15
2023-03-04T05:54:12.000Z,16.4
2023-03-04T05:57:45.000Z,14.7
2023-03-04T06:01:18.000Z,15.5
2023-03-04T06:04:09.000Z,14.9
2023-03-04T06:07:41.000Z,14.7
2023-03-04T06:11:14.000Z,15
2023-03-04T06:14:47.000Z,14.1
2023-03-04T06:18:19.000Z,17.5
2023-03-04T06:21:52.000Z,13.8
2023-03-04T06:25:25.000Z,13.3
2023-03-04T06:28:58.000Z,14.1
2023-03-04T06:32:30.000Z,11.8
2023-03-04T06:36:03.000Z,12.2
2023-03-04T06:39:36.000Z,11.8
2023-03-04T06:42:27.000Z,12.1
2023-03-04T06:45:59.000Z,11.5
2023-03-04T06:49:32.000Z,12.1
2023-03-04T06:53:04.000Z,12.1
2023-03-04T06:56:37.000Z,11.7
2023-03-04T07:00:10.000Z,12.7
2023-03-04T07:03:42.000Z,11.6
2023-03-04T07:07:15.000Z,13
2023-03-04T07:10:48.000Z,13.5
2023-03-04T07:14:20.000Z,13.4
2023-03-04T07:17:53.000Z,14
2023-03-04T07:20:44.000Z,13.7
2023-03-04T07:24:17.000Z,13.4
2023-03-04T07:27:49.000Z,13.7
2023-03-04T07:31:22.000Z,13
2023-03-04T07:34:55.000Z,13.8
2023-03-04T07:38:28.000Z,15.8
2023-03-04T07:42:00.000Z,12.6
2023-03-04T07:45:33.000Z,12.6
2023-03-04T07:49:06.000Z,11.6
2023-03-04T07:52:38.000Z,12.4
2023-03-04T07:56:11.000Z,11.8
2023-03-04T07:59:02.000Z,12.6
2023-03-04T08:02:35.000Z,13.7
2023-03-04T08:06:08.000Z,12.9
2023-03-04T08:09:40.000Z,10.7
2023-03-04T08:13:13.000Z,12.2
2023-03-04T08:16:46.000Z,12.9
2023-03-04T08:20:19.000Z,12.4
2023-03-04T08:23:52.000Z,11.7
2023-03-04T08:27:24.000Z,12.1
2023-03-04T08:30:57.000Z,12.7
2023-03-04T08:34:30.000Z,12.5
2023-03-04T08:37:21.000Z,12.1
2023-03-04T08:40:54.000Z,12.3
2023-03-04T08:44:26.000Z,11.1
2023-03-04T08:47:59.000Z,12.4
2023-03-04T08:51:32.000Z,12.1
2023-03-04T08:55:05.000Z,11.8
2023-03-04T08:58:37.000Z,11.9
2023-03-04T09:02:10.000Z,12.7
2023-03-04T09:05:43.000Z,11.3
2023-03-04T09:09:15.000Z,11.8
2023-03-04T09:12:48.000Z,11.9
2023-03-04T09:15:39.000Z,12.1
2023-03-04T09:19:12.000Z,11.4
2023-03-04T09:22:44.000Z,11.5
2023-03-04T09:26:17.000Z,10.9
2023-03-04T09:29:50.000Z,10.7
2023-03-04T09:33:22.000Z,9.5
2023-03-04T09:36:55.000Z,9.1
2023-03-04T09:40:29.000Z,8.7
2023-03-04T09:44:01.000Z,9.4
2023-03-04T09:47:34.000Z,8.6
2023-03-04T09:51:07.000Z,8.2
2023-03-04T09:53:58.000Z,8.2
2023-03-04T09:57:30.000Z,8.2
2023-03-04T10:01:03.000Z,8.3
2023-03-04T10:04:36.000Z,9
2023-03-04T10:08:09.000Z,7.7
2023-03-04T10:11:41.000Z,7.6
2023-03-04T10:15:14.000Z,7.2
2023-03-04T10:18:47.000Z,7.2
2023-03-04T10:22:19.000Z,6.4
2023-03-04T10:25:52.000Z,6.5
2023-03-04T10:29:25.000Z,5.9
2023-03-04T10:32:16.000Z,6
2023-03-04T10:35:49.000Z,6.9
2023-03-04T10:39:21.000Z,6.1
2023-03-04T10:42:54.000Z,5.3
2023-03-04T10:46:26.000Z,5.2
2023-03-04T10:49:59.000Z,5
2023-03-04T10:53:32.000Z,4.2
2023-03-04T10:57:04.000Z,4.2
2023-03-04T11:00:37.000Z,4.3
2023-03-04T11:04:10.000Z,4
2023-03-04T11:07:42.000Z,3.9
2023-03-04T11:10:40.000Z,3.9
2023-03-04T11:14:12.000Z,4.1
2023-03-04T11:17:45.000Z,3.9
2023-03-04T11:21:18.000Z,3.4
2023-03-04T11:24:50.000Z,3.1
2023-03-04T11:28:23.000Z,2.9
2023-03-04T11:31:56.000Z,3.7
2023-03-04T11:35:29.000Z,3.5
2023-03-04T11:39:01.000Z,3.7
2023-03-04T11:42:34.000Z,3
2023-03-04T11:46:06.000Z,3.5
2023-03-04T11:48:58.000Z,2.8
2023-03-04T11:52:30.000Z,3.2
2023-03-04T11:56:03.000Z,2.8
2023-03-04T11:59:35.000Z,3.2
2023-03-04T12:03:08.000Z,2.9
2023-03-04T12:06:41.000Z,3.4
2023-03-04T12:10:14.000Z,3.3
2023-03-04T12:13:46.000Z,3.5
2023-03-04T12:17:19.000Z,3.6
2023-03-04T12:20:52.000Z,3.3
2023-03-04T12:24:24.000Z,4
2023-03-04T12:27:15.000Z,3.5
2023-03-04T12:30:48.000Z,3.5
2023-03-04T12:34:21.000Z,2.9
2023-03-04T12:37:53.000Z,3.1
2023-03-04T12:41:26.000Z,3.4
2023-03-04T12:44:59.000Z,3.4
2023-03-04T12:48:31.000Z,3
2023-03-04T12:52:04.000Z,3.1
2023-03-04T12:55:37.000Z,3.2
2023-03-04T12:59:09.000Z,3.2
2023-03-04T13:02:42.000Z,3
2023-03-04T13:05:33.000Z,3.2
2023-03-04T13:09:06.000Z,2.7
2023-03-04T13:12:38.000Z,2.5
2023-03-04T13:16:11.000Z,2.6
2023-03-04T13:19:44.000Z,2.4
2023-03-04T13:23:17.000Z,1.8
2023-03-04T13:26:51.000Z,1.9
2023-03-04T13:30:23.000Z,2.1
2023-03-04T13:33:56.000Z,2.2
2023-03-04T13:37:29.000Z,1.9
2023-03-04T13:41:01.000Z,2.1
2023-03-04T13:43:53.000Z,2
2023-03-04T13:47:25.000Z,1.9
2023-03-04T13:50:58.000Z,1.8
2023-03-04T13:54:30.000Z,1.9
2023-03-04T13:58:03.000Z,1.8
2023-03-04T14:01:36.000Z,2
2023-03-04T14:05:08.000Z,1.9
2023-03-04T14:08:41.000Z,1.9
2023-03-04T14:12:13.000Z,1.8
2023-03-04T14:15:46.000Z,2
2023-03-04T14:19:19.000Z,1.9
2023-03-04T14:22:10.000Z,1.6
2023-03-04T14:25:43.000Z,2.1
2023-03-04T14:29:15.000Z,1.9
2023-03-04T14:32:48.000Z,1.7
2023-03-04T14:36:20.000Z,1.8
2023-03-04T14:39:53.000Z,1.2
2023-03-04T14:43:26.000Z,1
2023-03-04T14:46:58.000Z,0.8
2023-03-04T14:50:33.000Z,1.2
2023-03-04T14:54:06.000Z,1.2
2023-03-04T14:57:38.000Z,1.3
2023-03-04T15:00:29.000Z,1.4
2023-03-04T15:04:02.000Z,1.5
2023-03-04T15:07:34.000Z,1.6
2023-03-04T15:11:07.000Z,1.7
2023-03-04T15:14:40.000Z,1.6
2023-03-04T15:18:13.000Z,1.4
2023-03-04T15:21:45.000Z,1.7
2023-03-04T15:25:18.000Z,1.8
2023-03-04T15:28:51.000Z,4.9
2023-03-04T15:32:23.000Z,2.2
2023-03-04T15:35:56.000Z,2.1
2023-03-04T15:38:47.000Z,2
2023-03-04T15:42:20.000Z,2.1
2023-03-04T15:45:53.000Z,2.1
2023-03-04T15:49:26.000Z,2.1
2023-03-04T15:52:58.000Z,2
2023-03-04T15:56:31.000Z,2
2023-03-04T16:00:04.000Z,1.7
2023-03-04T16:03:36.000Z,1.9
2023-03-04T16:07:09.000Z,1.9
2023-03-04T16:10:42.000Z,2.4
2023-03-04T16:14:14.000Z,4.5
2023-03-04T16:17:06.000Z,2.3
2023-03-04T16:20:38.000Z,2.3
2023-03-04T16:24:11.000Z,2.4
2023-03-04T16:27:43.000Z,1.7
2023-03-04T16:31:16.000Z,2.7
2023-03-04T16:34:49.000Z,2.1
2023-03-04T16:38:21.000Z,2.2
2023-03-04T16:41:54.000Z,3.2
2023-03-04T16:45:27.000Z,2.4
2023-03-04T16:48:59.000Z,2.1
2023-03-04T16:52:32.000Z,2.3
2023-03-04T16:55:23.000Z,2.2
2023-03-04T16:58:56.000Z,2.5
2023-03-04T17:02:28.000Z,2.2
2023-03-04T17:06:01.000Z,2.4
2023-03-04T17:09:34.000Z,2.8
2023-03-04T17:13:06.000Z,2.5
2023-03-04T17:16:39.000Z,2.7
2023-03-04T17:20:12.000Z,2.6
2023-03-04T17:23:44.000Z,2.8
2023-03-04T17:27:17.000Z,7.5
2023-03-04T17:30:50.000Z,3.7
2023-03-04T17:33:41.000Z,10.7
2023-03-04T17:37:14.000Z,4.8
2023-03-04T17:40:46.000Z,3.5
2023-03-04T17:44:19.000Z,3.5
2023-03-04T17:47:52.000Z,4.2
2023-03-04T17:51:24.000Z,3.6
2023-03-04T17:54:57.000Z,4
2023-03-04T17:58:30.000Z,4
2023-03-04T18:02:02.000Z,4.3
2023-03-04T18:05:35.000Z,3.7
2023-03-04T18:09:08.000Z,4.3
2023-03-04T18:11:59.000Z,3.9
2023-03-04T18:15:32.000Z,3.6
2023-03-04T18:19:05.000Z,3.6
2023-03-04T18:22:37.000Z,3.5
2023-03-04T18:26:10.000Z,4.2
2023-03-04T18:29:46.000Z,3.6
2023-03-04T18:33:19.000Z,3.9
2023-03-04T18:36:51.000Z,4.1
2023-03-04T18:40:24.000Z,4.2
2023-03-04T18:43:56.000Z,4.2
2023-03-04T18:47:29.000Z,4.1
2023-03-04T18:50:20.000Z,3.8
2023-03-04T18:53:53.000Z,4.1
2023-03-04T18:57:25.000Z,3.3
2023-03-04T19:00:58.000Z,3.4
2023-03-04T19:04:31.000Z,2.9
2023-03-04T19:08:03.000Z,3.7
2023-03-04T19:11:36.000Z,3.5
2023-03-04T19:15:09.000Z,3.2
2023-03-04T19:18:42.000Z,3.6
2023-03-04T19:22:14.000Z,3.6
2023-03-04T19:25:47.000Z,4
2023-03-04T19:28:38.000Z,4
2023-03-04T19:32:11.000Z,3.8
2023-03-04T19:35:44.000Z,3.8
2023-03-04T19:39:16.000Z,3.5
2023-03-04T19:42:49.000Z,3.4
2023-03-04T19:46:22.000Z,4.2
2023-03-04T19:49:54.000Z,4.3
2023-03-04T19:53:27.000Z,4
2023-03-04T19:57:00.000Z,3.7
2023-03-04T20:00:33.000Z,4.1
2023-03-04T20:04:05.000Z,4.1
2023-03-04T20:06:57.000Z,4
2023-03-04T20:10:29.000Z,5
2023-03-04T20:14:02.000Z,4.4
2023-03-04T20:17:34.000Z,3.9
2023-03-04T20:21:07.000Z,3.9
2023-03-04T20:24:40.000Z,3.2
2023-03-04T20:28:12.000Z,3.6
2023-03-04T20:31:45.000Z,3.3
2023-03-04T20:35:18.000Z,3.2
2023-03-04T20:38:50.000Z,3.2
2023-03-04T20:42:28.000Z,3.1
2023-03-04T20:45:19.000Z,3.2
2023-03-04T20:48:51.000Z,3.2
2023-03-04T20:52:24.000Z,2.5
2023-03-04T20:55:57.000Z,3.5
2023-03-04T20:59:29.000Z,3.5
2023-03-04T21:03:02.000Z,3.1
2023-03-04T21:06:35.000Z,3.1
2023-03-04T21:10:07.000Z,3.6
2023-03-04T21:13:40.000Z,3.9
2023-03-04T21:17:12.000Z,4.8
2023-03-04T21:20:45.000Z,3.5
2023-03-04T21:23:36.000Z,3.4
2023-03-04T21:27:09.000Z,3.5
2023-03-04T21:30:42.000Z,3.6
2023-03-04T21:34:23.000Z,3
2023-03-04T21:37:55.000Z,3.4
2023-03-04T21:41:28.000Z,2.6
2023-03-04T21:45:01.000Z,3.2
2023-03-04T21:48:33.000Z,2.9
2023-03-04T21:52:06.000Z,3.1
2023-03-04T21:55:39.000Z,3.6
2023-03-04T21:59:11.000Z,3
2023-03-04T22:02:03.000Z,2.8
2023-03-04T22:05:35.000Z,2.9
2023-03-04T22:09:08.000Z,3
2023-03-04T22:12:41.000Z,2.8
2023-03-04T22:16:13.000Z,3.3
2023-03-04T22:19:46.000Z,3.3
2023-03-04T22:23:19.000Z,3.7
2023-03-04T22:26:51.000Z,3.3
2023-03-04T22:30:24.000Z,3
2023-03-04T22:33:57.000Z,2.8
2023-03-04T22:37:30.000Z,3.1
2023-03-04T22:40:21.000Z,3.1
2023-03-04T22:43:53.000Z,3
2023-03-04T22:47:26.000Z,2.7
2023-03-04T22:50:59.000Z,2.9
2023-03-04T22:54:31.000Z,4.4
2023-03-04T22:58:04.000Z,4.5
2023-03-04T23:01:36.000Z,7.2
2023-03-04T23:05:09.000Z,6.8
2023-03-04T23:08:41.000Z,4.1
2023-03-04T23:12:14.000Z,3.9
2023-03-04T23:15:47.000Z,3.4
2023-03-04T23:18:38.000Z,3.3
2023-03-04T23:22:10.000Z,3.8
2023-03-04T23:25:43.000Z,3
2023-03-04T23:29:16.000Z,3.4
2023-03-04T23:32:48.000Z,3
2023-03-04T23:36:21.000Z,3.2
2023-03-04T23:39:53.000Z,3.1
2023-03-04T23:43:26.000Z,2.9
2023-03-04T23:46:59.000Z,3
2023-03-04T23:50:31.000Z,2.7
2023-03-04T23:54:04.000Z,2.5
2023-03-04T23:56:55.000Z,3.1
